createdAt,value
2018-03-18T00:02:23.087Z,-6.80
2018-03-18T00:04:50.687Z,-6.80
2018-03-18T00:07:19.087Z,-6.80
2018-03-18T00:09:47.439Z,-6.90
2018-03-18T00:12:15.034Z,-6.90
2018-03-18T00:14:43.391Z,-6.90
2018-03-18T00:17:10.974Z,-6.90
2018-03-18T00:19:39.331Z,-6.90
2018-03-18T00:22:06.919Z,-7.00
2018-03-18T00:24:35.280Z,-7.00
2018-03-18T00:27:02.871Z,-7.00
2018-03-18T00:29:31.223Z,-7.10
2018-03-18T00:31:58.813Z,-7.00
2018-03-18T00:34:27.171Z,-7.10
2018-03-18T00:36:54.764Z,-7.10
2018-03-18T00:39:23.119Z,-7.10
2018-03-18T00:41:50.707Z,-7.10
2018-03-18T00:44:19.057Z,-7.10
2018-03-18T00:46:46.647Z,-7.10
2018-03-18T00:49:15.003Z,-7.10
2018-03-18T00:51:54.515Z,-7.20
2018-03-18T00:54:22.103Z,-7.20
2018-03-18T00:56:49.695Z,-7.20
2018-03-18T00:59:17.283Z,-7.20
2018-03-18T01:01:44.869Z,-7.20
2018-03-18T01:04:12.460Z,-7.20
2018-03-18T01:06:40.052Z,-7.30
2018-03-18T01:09:07.656Z,-7.30
2018-03-18T01:11:35.243Z,-7.30
2018-03-18T01:14:02.881Z,-7.30
2018-03-18T01:16:30.487Z,-7.30
2018-03-18T01:18:58.078Z,-7.30
2018-03-18T01:21:26.441Z,-7.40
2018-03-18T01:23:54.034Z,-7.40
2018-03-18T01:26:22.411Z,-7.40
2018-03-18T01:28:50.787Z,-7.40
2018-03-18T01:31:19.167Z,-7.50
2018-03-18T01:33:46.755Z,-7.50
2018-03-18T01:36:15.155Z,-7.50
2018-03-18T01:38:42.744Z,-7.50
2018-03-18T01:41:10.335Z,-7.50
2018-03-18T01:43:37.924Z,-7.50
2018-03-18T01:46:06.287Z,-7.50
2018-03-18T01:48:33.878Z,-7.50
2018-03-18T01:51:02.232Z,-7.50
2018-03-18T01:53:29.829Z,-7.50
2018-03-18T01:55:58.187Z,-7.60
2018-03-18T01:58:25.774Z,-7.60
2018-03-18T02:00:53.371Z,-7.60
2018-03-18T02:03:20.960Z,-7.60
2018-03-18T02:05:48.550Z,-7.60
2018-03-18T02:08:16.144Z,-7.70
2018-03-18T02:10:43.765Z,-7.70
2018-03-18T02:13:11.357Z,-7.70
2018-03-18T02:15:39.711Z,-7.80
2018-03-18T02:18:07.297Z,-7.80
2018-03-18T02:20:35.700Z,-7.80
2018-03-18T02:23:03.288Z,-7.80
2018-03-18T02:25:30.875Z,-7.80
2018-03-18T02:27:58.457Z,-7.90
2018-03-18T02:30:26.051Z,-7.90
2018-03-18T02:32:54.415Z,-8.00
2018-03-18T02:35:22.008Z,-8.00
2018-03-18T02:37:49.599Z,-8.00
2018-03-18T02:40:17.192Z,-8.00
2018-03-18T02:42:44.787Z,-8.00
2018-03-18T02:45:13.152Z,-8.10
2018-03-18T02:47:40.795Z,-8.10
2018-03-18T02:50:08.379Z,-8.10
2018-03-18T02:52:35.959Z,-8.10
2018-03-18T02:55:04.319Z,-8.20
2018-03-18T02:57:31.942Z,-8.20
2018-03-18T02:59:59.527Z,-8.20
2018-03-18T03:02:27.120Z,-8.20
2018-03-18T03:04:54.751Z,-8.30
2018-03-18T03:07:22.339Z,-8.30
2018-03-18T03:09:49.965Z,-8.30
2018-03-18T03:12:17.558Z,-8.40
2018-03-18T03:14:45.143Z,-8.40
2018-03-18T03:17:12.729Z,-8.40
2018-03-18T03:19:41.083Z,-8.40
2018-03-18T03:22:08.695Z,-8.50
2018-03-18T03:24:36.327Z,-8.40
2018-03-18T03:27:03.931Z,-8.50
2018-03-18T03:29:31.542Z,-8.50
2018-03-18T03:31:59.128Z,-8.50
2018-03-18T03:34:26.720Z,-8.50
2018-03-18T03:36:54.303Z,-8.50
2018-03-18T03:39:21.887Z,-8.60
2018-03-18T03:41:49.479Z,-8.60
2018-03-18T03:44:17.067Z,-8.60
2018-03-18T03:46:45.419Z,-8.70
2018-03-18T03:49:13.026Z,-8.70
2018-03-18T03:51:40.619Z,-8.70
2018-03-18T03:54:08.270Z,-8.70
2018-03-18T03:56:35.855Z,-8.70
2018-03-18T03:59:03.439Z,-8.70
2018-03-18T04:01:31.027Z,-8.80
2018-03-18T04:03:58.639Z,-8.80
2018-03-18T04:06:26.218Z,-8.80
2018-03-18T04:08:53.803Z,-8.80
2018-03-18T04:11:21.391Z,-8.80
2018-03-18T04:13:49.747Z,-8.90
2018-03-18T04:16:17.336Z,-8.90
2018-03-18T04:18:44.927Z,-8.90
2018-03-18T04:21:12.519Z,-8.90
2018-03-18T04:23:40.128Z,-8.90
2018-03-18T04:26:07.710Z,-8.90
2018-03-18T04:28:36.063Z,-9.00
2018-03-18T04:31:03.655Z,-9.00
2018-03-18T04:33:32.002Z,-9.00
2018-03-18T04:35:59.587Z,-9.10
2018-03-18T04:38:27.939Z,-9.10
2018-03-18T04:40:55.518Z,-9.10
2018-03-18T04:43:23.113Z,-9.10
2018-03-18T04:45:51.458Z,-9.10
2018-03-18T04:48:20.554Z,-9.10
2018-03-18T04:50:48.130Z,-9.10
2018-03-18T04:53:15.723Z,-9.10
2018-03-18T04:55:44.122Z,-9.20
2018-03-18T04:58:11.708Z,-9.20
2018-03-18T05:00:39.291Z,-9.20
2018-03-18T05:03:06.883Z,-9.20
2018-03-18T05:05:34.486Z,-9.20
2018-03-18T05:08:02.073Z,-9.30
2018-03-18T05:10:29.668Z,-9.20
2018-03-18T05:12:57.258Z,-9.20
2018-03-18T05:15:25.611Z,-9.30
2018-03-18T05:17:53.198Z,-9.30
2018-03-18T05:20:21.559Z,-9.30
2018-03-18T05:22:49.148Z,-9.30
2018-03-18T05:25:17.503Z,-9.30
2018-03-18T05:27:45.087Z,-9.30
2018-03-18T05:30:13.442Z,-9.30
2018-03-18T05:32:41.046Z,-9.30
2018-03-18T05:35:09.408Z,-9.30
2018-03-18T05:37:37.014Z,-9.30
2018-03-18T05:40:04.631Z,-9.30
2018-03-18T05:42:32.219Z,-9.30
2018-03-18T05:45:00.570Z,-9.30
2018-03-18T05:47:28.152Z,-9.30
2018-03-18T05:49:55.751Z,-9.30
2018-03-18T05:52:23.335Z,-9.30
2018-03-18T05:54:50.938Z,-9.30
2018-03-18T05:57:18.527Z,-9.20
2018-03-18T05:59:46.870Z,-9.20
2018-03-18T06:02:14.455Z,-9.20
2018-03-18T06:04:42.039Z,-9.20
2018-03-18T06:07:10.395Z,-9.10
2018-03-18T06:09:37.982Z,-9.20
2018-03-18T06:12:06.336Z,-9.10
2018-03-18T06:14:33.931Z,-9.10
2018-03-18T06:17:02.330Z,-9.00
2018-03-18T06:19:29.929Z,-9.00
2018-03-18T06:21:57.517Z,-9.00
2018-03-18T06:24:25.094Z,-9.00
2018-03-18T06:26:52.681Z,-9.00
2018-03-18T06:29:21.034Z,-8.90
2018-03-18T06:31:48.619Z,-8.90
2018-03-18T06:34:16.973Z,-8.90
2018-03-18T06:36:44.563Z,-8.90
2018-03-18T06:39:12.939Z,-8.90
2018-03-18T06:41:40.571Z,-8.90
2018-03-18T06:44:08.160Z,-8.90
2018-03-18T06:46:35.750Z,-8.80
2018-03-18T06:49:04.111Z,-8.80
2018-03-18T06:51:31.706Z,-8.80
2018-03-18T06:53:59.319Z,-8.80
2018-03-18T06:56:26.907Z,-8.80
2018-03-18T06:58:54.496Z,-8.70
2018-03-18T07:01:22.107Z,-8.80
2018-03-18T07:03:49.935Z,-8.70
2018-03-18T07:06:18.422Z,-8.70
2018-03-18T07:08:46.019Z,-8.70
2018-03-18T07:11:13.657Z,-8.70
2018-03-18T07:13:41.247Z,-8.70
2018-03-18T07:16:08.826Z,-8.70
2018-03-18T07:18:36.415Z,-8.60
2018-03-18T07:21:04.026Z,-8.60
2018-03-18T07:23:31.625Z,-8.60
2018-03-18T07:26:00.018Z,-8.50
2018-03-18T07:28:27.682Z,-8.60
2018-03-18T07:30:55.276Z,-8.50
2018-03-18T07:33:23.632Z,-8.40
2018-03-18T07:35:51.283Z,-8.40
2018-03-18T07:38:18.870Z,-8.40
2018-03-18T07:40:46.495Z,-8.30
2018-03-18T07:43:14.078Z,-8.30
2018-03-18T07:45:41.686Z,-8.30
2018-03-18T07:48:10.035Z,-8.20
2018-03-18T07:50:37.624Z,-8.20
2018-03-18T07:53:05.981Z,-8.10
2018-03-18T07:55:33.572Z,-8.10
2018-03-18T07:58:01.936Z,-7.90
2018-03-18T08:00:29.531Z,-7.90
2018-03-18T08:02:57.891Z,-7.90
2018-03-18T08:05:25.474Z,-7.90
2018-03-18T08:07:53.863Z,-7.90
2018-03-18T08:10:22.217Z,-7.80
2018-03-18T08:12:49.866Z,-7.80
2018-03-18T08:15:17.453Z,-7.70
2018-03-18T08:17:45.075Z,-7.70
2018-03-18T08:20:12.663Z,-7.70
2018-03-18T08:22:40.256Z,-7.70
2018-03-18T08:25:08.613Z,-7.50
2018-03-18T08:27:36.195Z,-7.50
2018-03-18T08:30:03.814Z,-7.40
2018-03-18T08:32:31.394Z,-7.50
2018-03-18T08:34:58.986Z,-7.40
2018-03-18T08:37:26.574Z,-7.50
2018-03-18T08:39:54.947Z,-7.40
2018-03-18T08:42:29.193Z,-7.30
2018-03-18T08:44:56.770Z,-7.30
2018-03-18T08:47:24.355Z,-7.30
2018-03-18T08:49:51.980Z,-7.20
2018-03-18T08:52:19.678Z,-7.10
2018-03-18T08:54:47.182Z,-7.10
2018-03-18T08:57:14.776Z,-6.90
2018-03-18T08:59:42.363Z,-7.00
2018-03-18T09:02:09.951Z,-6.90
2018-03-18T09:04:37.543Z,-6.70
2018-03-18T09:07:05.152Z,-6.60
2018-03-18T09:09:32.739Z,-6.60
2018-03-18T09:12:00.326Z,-6.50
2018-03-18T09:14:27.911Z,-6.60
2018-03-18T09:16:56.262Z,-6.30
2018-03-18T09:19:23.855Z,-6.30
2018-03-18T09:21:52.256Z,-6.20
2018-03-18T09:24:20.608Z,-6.10
2018-03-18T09:26:48.194Z,-6.10
2018-03-18T09:29:16.544Z,-6.00
2018-03-18T09:31:44.123Z,-6.00
2018-03-18T09:34:11.715Z,-6.10
2018-03-18T09:36:40.070Z,-6.10
2018-03-18T09:39:08.019Z,-6.20
2018-03-18T09:41:35.599Z,-5.90
2018-03-18T09:44:04.160Z,-5.70
2018-03-18T09:46:31.744Z,-5.80
2018-03-18T09:48:59.328Z,-5.70
2018-03-18T09:51:26.919Z,-5.80
2018-03-18T09:53:54.552Z,-5.80
2018-03-18T09:56:22.142Z,-6.00
2018-03-18T09:58:50.490Z,-6.00
2018-03-18T10:01:18.067Z,-6.10
2018-03-18T10:03:45.671Z,-5.90
2018-03-18T10:06:13.275Z,-5.70
2018-03-18T10:08:40.859Z,-5.60
2018-03-18T10:11:08.462Z,-5.50
2018-03-18T10:13:36.048Z,-5.50
2018-03-18T10:16:03.678Z,-5.50
2018-03-18T10:18:32.026Z,-5.50
2018-03-18T10:20:59.615Z,-5.50
2018-03-18T10:23:27.966Z,-5.30
2018-03-18T10:25:55.571Z,-5.40
2018-03-18T10:28:23.919Z,-5.40
2018-03-18T10:30:51.499Z,-5.40
2018-03-18T10:33:19.087Z,-5.30
2018-03-18T10:35:47.458Z,-5.10
2018-03-18T10:38:15.807Z,-5.10
2018-03-18T10:40:43.396Z,-5.10
2018-03-18T10:43:10.979Z,-5.10
2018-03-18T10:45:39.331Z,-5.10
2018-03-18T10:48:06.910Z,-5.10
2018-03-18T10:50:35.266Z,-4.90
2018-03-18T10:53:02.886Z,-4.90
2018-03-18T10:55:30.471Z,-4.70
2018-03-18T10:57:58.158Z,-4.50
2018-03-18T11:00:31.328Z,-4.50
2018-03-18T11:02:58.935Z,-4.40
2018-03-18T11:05:26.534Z,-4.50
2018-03-18T11:07:54.172Z,-4.50
2018-03-18T11:10:21.754Z,-4.40
2018-03-18T11:12:50.107Z,-4.30
2018-03-18T11:15:17.707Z,-4.30
2018-03-18T11:17:45.294Z,-4.50
2018-03-18T11:20:12.894Z,-4.50
2018-03-18T11:22:40.495Z,-4.40
2018-03-18T11:25:08.867Z,-4.30
2018-03-18T11:27:36.449Z,-4.30
2018-03-18T11:30:04.954Z,-4.50
2018-03-18T11:32:32.547Z,-4.50
2018-03-18T11:35:00.135Z,-4.60
2018-03-18T11:37:27.739Z,-4.40
2018-03-18T11:39:55.335Z,-4.20
2018-03-18T11:42:22.914Z,-4.10
2018-03-18T11:44:50.503Z,-4.10
2018-03-18T11:47:18.095Z,-4.20
2018-03-18T11:49:45.679Z,-4.20
2018-03-18T11:52:13.324Z,-4.30
2018-03-18T11:54:40.907Z,-4.30
2018-03-18T11:57:08.491Z,-4.20
2018-03-18T11:59:36.168Z,-4.10
2018-03-18T12:02:03.787Z,-4.20
2018-03-18T12:04:31.432Z,-4.20
2018-03-18T12:06:59.801Z,-4.00
2018-03-18T12:09:27.419Z,-4.00
2018-03-18T12:11:55.034Z,-3.90
2018-03-18T12:14:22.802Z,-3.90
2018-03-18T12:16:50.471Z,-3.90
2018-03-18T12:19:18.467Z,-3.90
2018-03-18T12:21:46.832Z,-4.00
2018-03-18T12:24:14.419Z,-4.00
2018-03-18T12:26:42.016Z,-4.00
2018-03-18T12:29:09.807Z,-3.80
2018-03-18T12:31:37.400Z,-3.80
2018-03-18T12:34:05.039Z,-3.70
2018-03-18T12:36:32.631Z,-3.70
2018-03-18T12:39:01.005Z,-3.70
2018-03-18T12:41:29.654Z,-3.80
2018-03-18T12:43:57.240Z,-3.80
2018-03-18T12:46:24.849Z,-3.70
2018-03-18T12:48:53.072Z,-3.80
2018-03-18T12:51:21.447Z,-3.70
2018-03-18T12:53:49.051Z,-3.70
2018-03-18T12:56:16.636Z,-3.80
2018-03-18T12:58:45.000Z,-3.80
2018-03-18T13:01:12.591Z,-3.80
2018-03-18T13:03:40.949Z,-3.80
2018-03-18T13:06:08.567Z,-3.80
2018-03-18T13:08:36.163Z,-3.90
2018-03-18T13:11:03.818Z,-3.80
2018-03-18T13:13:32.331Z,-3.80
2018-03-18T13:15:59.995Z,-3.60
2018-03-18T13:18:27.615Z,-3.50
2018-03-18T13:20:55.211Z,-3.50
2018-03-18T13:23:22.799Z,-3.50
2018-03-18T13:25:51.155Z,-3.30
2018-03-18T13:28:18.754Z,-3.30
2018-03-18T13:30:47.112Z,-3.60
2018-03-18T13:33:14.755Z,-3.60
2018-03-18T13:35:42.339Z,-3.70
2018-03-18T13:38:09.936Z,-3.70
2018-03-18T13:40:38.415Z,-3.70
2018-03-18T13:43:07.186Z,-3.50
2018-03-18T13:45:34.774Z,-3.50
2018-03-18T13:48:04.044Z,-3.60
2018-03-18T13:50:31.643Z,-3.60
2018-03-18T13:53:00.942Z,-3.70
2018-03-18T13:55:29.290Z,-3.60
2018-03-18T13:57:57.012Z,-3.60
2018-03-18T14:00:24.628Z,-3.70
2018-03-18T14:02:52.507Z,-3.70
2018-03-18T14:05:20.151Z,-3.80
2018-03-18T14:07:47.744Z,-3.80
2018-03-18T14:10:15.349Z,-3.80
2018-03-18T14:12:42.973Z,-3.80
2018-03-18T14:15:10.586Z,-3.80
2018-03-18T14:17:38.168Z,-3.80
2018-03-18T14:20:05.827Z,-3.80
2018-03-18T14:22:34.150Z,-3.90
2018-03-18T14:25:01.752Z,-3.90
2018-03-18T14:27:29.341Z,-3.80
2018-03-18T14:29:56.967Z,-3.90
2018-03-18T14:32:24.600Z,-4.00
2018-03-18T14:34:52.188Z,-4.00
2018-03-18T14:37:19.775Z,-4.00
2018-03-18T14:39:47.404Z,-4.00
2018-03-18T14:42:14.991Z,-4.00
2018-03-18T14:44:43.391Z,-4.00
2018-03-18T14:47:10.981Z,-4.10
2018-03-18T14:49:38.589Z,-4.00
2018-03-18T14:52:06.183Z,-4.10
2018-03-18T14:54:34.549Z,-4.00
2018-03-18T14:57:02.903Z,-4.00
2018-03-18T14:59:30.516Z,-4.10
2018-03-18T15:01:58.111Z,-4.00
2018-03-18T15:04:25.724Z,-4.10
2018-03-18T15:06:55.276Z,-4.10
2018-03-18T15:09:22.871Z,-4.10
2018-03-18T15:11:50.472Z,-4.10
2018-03-18T15:14:18.827Z,-4.10
2018-03-18T15:16:46.419Z,-4.10
2018-03-18T15:19:14.780Z,-4.10
2018-03-18T15:21:42.372Z,-4.20
2018-03-18T15:24:10.733Z,-4.20
2018-03-18T15:26:38.315Z,-4.20
2018-03-18T15:29:06.672Z,-4.20
2018-03-18T15:31:34.259Z,-4.20
2018-03-18T15:34:02.611Z,-4.30
2018-03-18T15:36:30.215Z,-4.30
2018-03-18T15:38:58.567Z,-4.30
2018-03-18T15:41:26.159Z,-4.30
2018-03-18T15:43:54.558Z,-4.30
2018-03-18T15:46:22.143Z,-4.40
2018-03-18T15:48:49.754Z,-4.30
2018-03-18T15:51:17.342Z,-4.40
2018-03-18T15:53:45.719Z,-4.30
2018-03-18T15:56:14.067Z,-4.30
2018-03-18T15:58:41.687Z,-4.30
2018-03-18T16:01:09.279Z,-4.40
2018-03-18T16:03:37.627Z,-4.40
2018-03-18T16:06:05.238Z,-4.50
2018-03-18T16:08:32.820Z,-4.50
2018-03-18T16:11:00.411Z,-4.50
2018-03-18T16:13:28.762Z,-4.50
2018-03-18T16:15:56.366Z,-4.60
2018-03-18T16:18:23.982Z,-4.60
2018-03-18T16:20:51.639Z,-4.60
2018-03-18T16:23:19.237Z,-4.60
2018-03-18T16:25:46.839Z,-4.60
2018-03-18T16:28:14.428Z,-4.70
2018-03-18T16:30:53.823Z,-4.70
2018-03-18T16:33:22.187Z,-4.80
2018-03-18T16:35:49.855Z,-4.80
2018-03-18T16:38:18.216Z,-4.90
2018-03-18T16:40:45.803Z,-4.90
2018-03-18T16:43:14.154Z,-4.90
2018-03-18T16:45:41.748Z,-4.90
2018-03-18T16:48:10.107Z,-5.00
2018-03-18T16:50:37.691Z,-5.00
2018-03-18T16:53:05.310Z,-5.00
2018-03-18T16:55:32.895Z,-5.10
2018-03-18T16:58:00.478Z,-5.10
2018-03-18T17:00:28.066Z,-5.20
2018-03-18T17:02:56.440Z,-5.30
2018-03-18T17:05:24.788Z,-5.30
2018-03-18T17:07:52.376Z,-5.30
2018-03-18T17:10:19.959Z,-5.30
2018-03-18T17:12:48.307Z,-5.40
2018-03-18T17:15:15.888Z,-5.40
2018-03-18T17:17:43.570Z,-5.40
2018-03-18T17:20:11.998Z,-5.50
2018-03-18T17:22:39.604Z,-5.50
2018-03-18T17:25:07.192Z,-5.40
2018-03-18T17:27:35.556Z,-5.50
2018-03-18T17:30:03.158Z,-5.60
2018-03-18T17:32:30.743Z,-5.50
2018-03-18T17:34:58.486Z,-5.60
2018-03-18T17:37:26.079Z,-5.60
2018-03-18T17:39:53.667Z,-5.60
2018-03-18T17:42:21.261Z,-5.60
2018-03-18T17:45:01.456Z,-5.70
2018-03-18T17:47:40.927Z,-5.70
2018-03-18T17:53:26.190Z,-5.80
2018-03-18T17:56:05.550Z,-5.70
2018-03-18T17:58:33.895Z,-5.70
2018-03-18T18:01:01.487Z,-5.80
2018-03-18T18:03:29.073Z,-5.80
2018-03-18T18:05:58.411Z,-5.80
2018-03-18T18:08:26.000Z,-5.90
2018-03-18T18:10:54.633Z,-5.80
2018-03-18T18:13:23.026Z,-5.90
2018-03-18T18:15:50.615Z,-5.90
2018-03-18T18:18:18.303Z,-5.90
2018-03-18T18:20:45.882Z,-5.90
2018-03-18T18:23:13.467Z,-5.90
2018-03-18T18:25:41.811Z,-5.90
2018-03-18T18:28:09.422Z,-5.90
2018-03-18T18:30:37.774Z,-6.00
2018-03-18T18:33:05.398Z,-6.00
2018-03-18T18:35:33.014Z,-5.90
2018-03-18T18:38:00.618Z,-6.00
2018-03-18T18:40:28.231Z,-6.00
2018-03-18T18:42:55.838Z,-6.00
2018-03-18T18:45:23.428Z,-6.00
2018-03-18T18:47:51.015Z,-6.00
2018-03-18T18:50:18.633Z,-6.10
2018-03-18T18:52:46.228Z,-6.10
2018-03-18T18:55:13.816Z,-6.20
2018-03-18T18:57:41.440Z,-6.20
2018-03-18T19:00:09.043Z,-6.20
2018-03-18T19:02:36.642Z,-6.30
2018-03-18T19:05:04.996Z,-6.30
2018-03-18T19:07:32.618Z,-6.30
2018-03-18T19:10:00.235Z,-6.30
2018-03-18T19:12:27.819Z,-6.30
2018-03-18T19:14:56.167Z,-6.30
2018-03-18T19:17:23.760Z,-6.30
2018-03-18T19:19:52.341Z,-6.30
2018-03-18T19:22:19.956Z,-6.30
2018-03-18T19:24:47.621Z,-6.40
2018-03-18T19:27:15.207Z,-6.40
2018-03-18T19:29:42.799Z,-6.30
2018-03-18T19:32:10.391Z,-6.30
2018-03-18T19:34:38.743Z,-6.30
2018-03-18T19:37:06.331Z,-6.30
2018-03-18T19:39:34.779Z,-6.30
2018-03-18T19:42:02.363Z,-6.40
2018-03-18T19:44:29.951Z,-6.40
2018-03-18T19:46:57.539Z,-6.40
2018-03-18T19:49:25.137Z,-6.40
2018-03-18T19:51:52.790Z,-6.40
2018-03-18T19:54:20.392Z,-6.50
2018-03-18T19:56:48.747Z,-6.50
2018-03-18T19:59:16.336Z,-6.50
2018-03-18T20:01:43.922Z,-6.50
2018-03-18T20:04:11.653Z,-6.50
2018-03-18T20:06:39.276Z,-6.50
2018-03-18T20:09:06.905Z,-6.50
2018-03-18T20:11:35.263Z,-6.50
2018-03-18T20:14:02.848Z,-6.50
2018-03-18T20:16:30.465Z,-6.50
2018-03-18T20:18:58.051Z,-6.50
2018-03-18T20:21:25.640Z,-6.50
2018-03-18T20:23:53.241Z,-6.50
2018-03-18T20:26:20.867Z,-6.50
2018-03-18T20:28:48.455Z,-6.50
2018-03-18T20:31:16.860Z,-6.60
2018-03-18T20:33:44.451Z,-6.60
2018-03-18T20:36:12.812Z,-6.60
2018-03-18T20:38:40.406Z,-6.60
2018-03-18T20:41:07.993Z,-6.60
2018-03-18T20:43:35.590Z,-6.60
2018-03-18T20:46:03.209Z,-6.60
2018-03-18T20:48:30.802Z,-6.60
2018-03-18T20:50:59.156Z,-6.70
2018-03-18T20:53:26.739Z,-6.70
2018-03-18T20:55:54.398Z,-6.70
2018-03-18T20:58:22.028Z,-6.70
2018-03-18T21:00:49.630Z,-6.70
2018-03-18T21:03:17.214Z,-6.70
2018-03-18T21:05:45.592Z,-6.80
2018-03-18T21:08:13.942Z,-6.80
2018-03-18T21:10:41.527Z,-6.80
2018-03-18T21:13:09.152Z,-6.80
2018-03-18T21:15:36.784Z,-6.80
2018-03-18T21:18:05.151Z,-6.80
2018-03-18T21:20:33.516Z,-6.80
2018-03-18T21:23:01.107Z,-6.80
2018-03-18T21:25:29.485Z,-6.90
2018-03-18T21:27:57.844Z,-6.90
2018-03-18T21:30:25.463Z,-6.90
2018-03-18T21:32:53.090Z,-6.90
2018-03-18T21:35:20.711Z,-6.90
2018-03-18T21:37:48.323Z,-7.00
2018-03-18T21:40:15.912Z,-7.00
2018-03-18T21:42:43.510Z,-7.00
2018-03-18T21:45:11.098Z,-7.00
2018-03-18T21:47:38.679Z,-7.00
2018-03-18T21:50:06.288Z,-7.00
2018-03-18T21:52:33.883Z,-7.00
2018-03-18T21:55:01.472Z,-7.10
2018-03-18T21:57:29.055Z,-7.10
2018-03-18T21:59:57.412Z,-7.10
2018-03-18T22:02:25.007Z,-7.10
2018-03-18T22:04:53.354Z,-7.10
2018-03-18T22:07:20.997Z,-7.10
2018-03-18T22:09:49.355Z,-7.10
2018-03-18T22:12:16.942Z,-7.10
2018-03-18T22:14:44.523Z,-7.20
2018-03-18T22:17:12.106Z,-7.20
2018-03-18T22:19:39.690Z,-7.20
2018-03-18T22:22:08.038Z,-7.20
2018-03-18T22:24:35.631Z,-7.20
2018-03-18T22:27:03.990Z,-7.20
2018-03-18T22:29:31.579Z,-7.20
2018-03-18T22:31:59.935Z,-7.30
2018-03-18T22:34:27.520Z,-7.30
2018-03-18T22:36:55.871Z,-7.20
2018-03-18T22:39:23.451Z,-7.30
2018-03-18T22:41:51.035Z,-7.30
2018-03-18T22:44:19.443Z,-7.30
2018-03-18T22:46:47.767Z,-7.30
2018-03-18T22:49:15.370Z,-7.30
2018-03-18T22:51:43.719Z,-7.30
2018-03-18T22:54:11.302Z,-7.30
2018-03-18T22:56:38.891Z,-7.30
2018-03-18T22:59:07.243Z,-7.30
2018-03-18T23:01:34.827Z,-7.40
2018-03-18T23:04:03.179Z,-7.30
2018-03-18T23:06:30.767Z,-7.30
2018-03-18T23:08:58.355Z,-7.30
2018-03-18T23:11:25.955Z,-7.30
2018-03-18T23:13:53.819Z,-7.30
2018-03-18T23:16:21.469Z,-7.30
2018-03-18T23:18:49.827Z,-7.30
2018-03-18T23:21:18.179Z,-7.30
2018-03-18T23:23:45.762Z,-7.40
2018-03-18T23:26:14.125Z,-7.40
2018-03-18T23:28:41.708Z,-7.40
2018-03-18T23:31:09.295Z,-7.40
2018-03-18T23:33:36.885Z,-7.40
2018-03-18T23:36:04.470Z,-7.40
2018-03-18T23:38:32.099Z,-7.40
2018-03-18T23:40:59.784Z,-7.40
2018-03-18T23:43:27.371Z,-7.40
2018-03-18T23:45:54.951Z,-7.40
2018-03-18T23:48:22.538Z,-7.40
2018-03-18T23:50:50.890Z,-7.50
2018-03-18T23:53:18.474Z,-7.50
2018-03-18T23:55:46.059Z,-7.50
2018-03-18T23:58:14.410Z,-7.60
